Time;durP1;ratioP1;P1;durP2;ratioP2;P2;SDS_P1;SDS_P2;PMS_P1;PMS_P2;Temp;Humidity;BMP_temperature;BMP_pressure;BME280_temperature;BME280_humidity;BME280_pressure;Samples;Min_cycle;Max_cycle;Signal;HPM_P1;HPM_P2
2023/08/22 00:00:28;;;;;;;11.48;7.75;;;;;;;20.29;89.36;101258.44;6116698;23;20077;-83
2023/08/22 00:02:55;;;;;;;11.50;7.60;;;;;;;20.23;90.01;101269.88;6116631;23;20057;-81
2023/08/22 00:05:26;;;;;;;12.88;8.18;;;;;;;20.18;89.99;101270.50;6115622;23;20037;-81
2023/08/22 00:07:53;;;;;;;12.38;7.97;;;;;;;20.23;90.29;101272.53;6113945;23;20023;-80
2023/08/22 00:10:20;;;;;;;12.95;7.82;;;;;;;20.04;90.22;101258.19;6112566;23;20027;-81
2023/08/22 00:12:46;;;;;;;16.50;8.23;;;;;;;20.06;90.80;101270.25;6109618;23;20392;-81
2023/08/22 00:15:14;;;;;;;13.80;8.07;;;;;;;20.02;91.08;101268.22;6106182;23;20026;-82
2023/08/22 00:17:42;;;;;;;14.82;8.45;;;;;;;20.02;91.18;101269.03;6099939;23;20070;-81
2023/08/22 00:20:11;;;;;;;15.48;8.90;;;;;;;20.07;91.29;101271.09;6099076;23;20053;-81
2023/08/22 00:22:38;;;;;;;12.45;8.13;;;;;;;20.11;91.01;101261.69;6104512;23;20031;-84
2023/08/22 00:25:05;;;;;;;14.88;8.15;;;;;;;20.16;91.23;101264.56;6110844;23;20026;-82
2023/08/22 00:27:38;;;;;;;13.68;8.75;;;;;;;20.15;91.06;101258.44;6110223;23;20026;-82
2023/08/22 00:30:05;;;;;;;12.10;8.50;;;;;;;20.01;91.11;101245.31;6109672;23;20022;-83
2023/08/22 00:32:32;;;;;;;13.07;8.70;;;;;;;20.04;91.38;101250.22;6111449;23;20022;-82
2023/08/22 00:35:00;;;;;;;14.18;8.40;;;;;;;19.85;91.66;101231.41;6111082;23;20026;-82
2023/08/22 00:37:38;;;;;;;19.10;8.93;;;;;;;20.04;92.22;101261.69;6112103;23;20022;-83
2023/08/22 00:40:08;;;;;;;12.75;9.10;;;;;;;19.88;92.26;101243.47;6106855;23;20396;-82
2023/08/22 00:43:04;;;;;;;12.73;9.02;;;;;;;19.72;92.49;101214.66;6104656;23;20022;-84
2023/08/22 00:45:33;;;;;;;13.45;8.57;;;;;;;20.02;92.79;101262.91;6102318;23;20113;-83
2023/08/22 00:48:03;;;;;;;17.75;9.82;;;;;;;19.77;92.78;101222.84;6105598;23;20052;-86
2023/08/22 00:50:36;;;;;;;17.35;9.57;;;;;;;19.97;92.75;101254.72;6110749;23;20029;-84
2023/08/22 00:53:03;;;;;;;15.57;9.65;;;;;;;19.90;92.68;101249.38;6112495;23;20026;-86
2023/08/22 00:55:30;;;;;;;17.00;9.65;;;;;;;19.95;93.20;101272.69;6110845;23;20022;-83
2023/08/22 00:57:57;;;;;;;16.98;9.65;;;;;;;19.77;93.43;101238.78;6113468;23;20026;-83
2023/08/22 01:00:26;;;;;;;14.35;9.60;;;;;;;19.74;93.58;101247.97;6112878;23;20031;-83
2023/08/22 01:02:53;;;;;;;14.93;9.25;;;;;;;19.79;93.83;101257.97;6110754;23;20028;-82
2023/08/22 01:05:27;;;;;;;14.70;10.25;;;;;;;19.72;94.22;101254.50;6106689;23;20038;-85
2023/08/22 01:08:00;;;;;;;13.45;9.48;;;;;;;19.70;94.42;101251.22;6104550;23;20054;-79
2023/08/22 01:10:32;;;;;;;14.82;9.45;;;;;;;19.65;94.57;101253.66;6103220;23;20033;-82
2023/08/22 01:13:05;;;;;;;14.73;9.57;;;;;;;19.61;95.13;101260.38;6106068;23;20109;-82
2023/08/22 01:15:35;;;;;;;15.27;10.13;;;;;;;19.58;95.32;101253.63;6104537;23;20269;-83
2023/08/22 01:18:04;;;;;;;16.80;9.82;;;;;;;19.53;95.56;101251.56;6104406;23;20029;-83
2023/08/22 01:20:31;;;;;;;17.92;10.68;;;;;;;19.42;96.18;101251.28;6109672;23;20114;-80
2023/08/22 01:22:59;;;;;;;13.88;10.30;;;;;;;19.42;96.39;101241.50;6111614;23;20026;-83
2023/08/22 01:25:27;;;;;;;17.98;10.00;;;;;;;19.43;96.09;101240.47;6109229;23;20022;-81
2023/08/22 01:28:08;;;;;;;16.70;10.45;;;;;;;19.47;96.24;101244.38;6107099;23;20294;-83
2023/08/22 01:30:46;;;;;;;16.90;11.18;;;;;;;19.43;96.31;101252.91;6101200;23;20050;-84
2023/08/22 01:33:25;;;;;;;18.20;10.90;;;;;;;19.28;96.89;101245.13;6102328;23;20019;-82
2023/08/22 01:38:48;;;;;;;13.52;10.73;;;;;;;19.09;97.05;101225.44;6095961;23;20535;-81
2023/08/22 01:41:19;;;;;;;16.55;10.45;;;;;;;19.19;97.27;101241.81;6104026;23;20030;-83
2023/08/22 01:43:52;;;;;;;17.60;11.10;;;;;;;19.09;97.51;101232.59;6101289;23;20463;-80
2023/08/22 01:46:22;;;;;;;15.50;10.85;;;;;;;19.13;97.86;101237.31;6100862;23;20022;-82
2023/08/22 01:48:55;;;;;;;16.10;11.30;;;;;;;19.21;98.24;101252.25;6102711;23;20072;-83
2023/08/22 01:51:23;;;;;;;14.38;10.85;;;;;;;19.21;98.42;101244.28;6126127;23;20081;-84
2023/08/22 01:53:57;;;;;;;18.05;11.35;;;;;;;19.06;98.53;101225.84;6132533;23;20342;-82
2023/08/22 01:56:26;;;;;;;16.73;10.93;;;;;;;19.20;98.55;101256.72;6131199;23;20022;-81
2023/08/22 01:59:05;;;;;;;18.17;11.98;;;;;;;18.95;98.70;101225.56;6131228;23;20590;-82
2023/08/22 02:01:32;;;;;;;17.90;12.40;;;;;;;19.00;98.99;101231.94;6130816;23;20301;-81
2023/08/22 02:04:07;;;;;;;17.45;12.65;;;;;;;19.11;98.97;101241.16;6129500;23;20020;-82
2023/08/22 02:06:33;;;;;;;16.63;12.00;;;;;;;18.95;98.79;101225.56;6125531;23;20022;-83
2023/08/22 02:09:01;;;;;;;17.77;13.05;;;;;;;19.00;99.08;101244.38;6130828;23;20050;-83
2023/08/22 02:11:28;;;;;;;16.35;12.70;;;;;;;19.04;99.32;101254.41;6132319;23;20021;-82
2023/08/22 02:13:56;;;;;;;14.07;10.77;;;;;;;19.03;99.61;101258.06;6130439;23;20026;-82
2023/08/22 02:16:22;;;;;;;21.80;12.65;;;;;;;18.99;99.59;101262.13;6129024;23;20022;-81
2023/08/22 02:18:49;;;;;;;19.02;13.32;;;;;;;18.87;99.86;101264.53;6129396;23;20053;-81
2023/08/22 02:21:15;;;;;;;17.40;12.70;;;;;;;18.83;100.00;101260.63;6128041;23;20097;-80
2023/08/22 02:23:42;;;;;;;22.15;12.20;;;;;;;18.83;100.00;101262.44;6128473;23;20026;-81
2023/08/22 02:26:10;;;;;;;18.25;13.13;;;;;;;18.81;100.00;101267.13;6129648;23;20059;-83
2023/08/22 02:28:36;;;;;;;20.42;13.02;;;;;;;18.80;100.00;101261.00;6130235;23;20026;-81
2023/08/22 02:31:03;;;;;;;19.17;12.90;;;;;;;18.79;100.00;101259.38;6130872;23;20071;-82
2023/08/22 02:33:30;;;;;;;17.85;13.63;;;;;;;18.77;100.00;101257.94;6132723;23;20053;-79
2023/08/22 02:35:56;;;;;;;20.77;12.90;;;;;;;18.76;100.00;101257.09;6132145;23;20053;-81
2023/08/22 02:38:23;;;;;;;20.17;13.35;;;;;;;18.74;100.00;101253.84;6129611;23;20049;-82
2023/08/22 02:40:50;;;;;;;21.80;14.43;;;;;;;18.70;100.00;101259.72;6128943;23;20411;-82
2023/08/22 02:43:18;;;;;;;19.58;13.32;;;;;;;18.71;100.00;101243.63;6128289;23;20230;-82
2023/08/22 02:45:45;;;;;;;20.05;13.10;;;;;;;18.68;100.00;101245.84;6132442;23;20026;-82
2023/08/22 02:48:12;;;;;;;18.13;12.95;;;;;;;18.66;100.00;101243.38;6127105;23;20488;-82
2023/08/22 02:50:38;;;;;;;19.15;13.05;;;;;;;18.67;100.00;101250.31;6128668;23;20049;-83
2023/08/22 02:53:05;;;;;;;19.25;14.13;;;;;;;18.70;100.00;101247.28;6128405;23;20095;-82
2023/08/22 02:55:32;;;;;;;18.13;12.45;;;;;;;18.70;100.00;101254.41;6127665;23;20022;-81
2023/08/22 02:57:59;;;;;;;18.27;13.05;;;;;;;18.66;100.00;101251.31;6127386;23;20029;-80
2023/08/22 03:00:27;;;;;;;17.77;13.52;;;;;;;18.60;100.00;101253.91;6127936;23;20373;-82
2023/08/22 03:02:54;;;;;;;22.70;13.27;;;;;;;18.52;100.00;101260.97;6127858;23;20026;-81
2023/08/22 03:05:20;;;;;;;20.25;13.30;;;;;;;18.47;100.00;101255.44;6127194;23;20088;-82
2023/08/22 03:07:49;;;;;;;23.40;13.90;;;;;;;18.43;100.00;101253.38;6127281;23;20126;-82
2023/08/22 03:10:16;;;;;;;21.30;13.93;;;;;;;18.49;100.00;101255.25;6129065;23;20022;-83
2023/08/22 03:12:42;;;;;;;19.00;13.23;;;;;;;18.48;100.00;101248.31;6128045;23;20088;-82
2023/08/22 03:15:09;;;;;;;20.17;13.75;;;;;;;18.44;100.00;101247.03;6127378;23;20026;-83
2023/08/22 03:17:40;;;;;;;26.65;13.60;;;;;;;18.38;100.00;101258.44;6128306;23;20018;-81
2023/08/22 03:20:09;;;;;;;20.23;13.48;;;;;;;18.32;100.00;101254.72;6127042;23;20475;-81
2023/08/22 03:22:35;;;;;;;25.08;14.30;;;;;;;18.29;100.00;101252.44;6126477;23;20028;-80
2023/08/22 03:25:02;;;;;;;21.23;13.93;;;;;;;18.28;100.00;101258.75;6128333;23;20037;-81
2023/08/22 03:27:29;;;;;;;19.80;13.57;;;;;;;18.27;100.00;101251.00;6131295;23;20053;-81
2023/08/22 03:29:55;;;;;;;22.17;13.50;;;;;;;18.29;100.00;101246.34;6134090;23;20136;-80
2023/08/22 03:32:22;;;;;;;24.13;13.50;;;;;;;18.31;100.00;101255.72;6133710;23;20037;-82
2023/08/22 03:34:50;;;;;;;20.90;13.77;;;;;;;18.31;100.00;101246.97;6130248;23;20030;-81
2023/08/22 03:37:17;;;;;;;20.52;13.45;;;;;;;18.21;100.00;101242.81;6129966;23;20070;-83
2023/08/22 03:39:43;;;;;;;18.95;12.70;;;;;;;18.21;100.00;101244.63;6130025;23;20026;-83
2023/08/22 03:42:10;;;;;;;24.27;14.23;;;;;;;18.18;100.00;101251.13;6129400;23;20026;-81
2023/08/22 03:44:36;;;;;;;20.58;13.50;;;;;;;18.17;100.00;101246.03;6129259;23;20097;-80
2023/08/22 03:47:03;;;;;;;24.40;13.98;;;;;;;18.13;100.00;101256.19;6127326;23;20069;-80
2023/08/22 03:49:30;;;;;;;22.92;14.10;;;;;;;18.12;100.00;101257.19;6127459;23;20064;-79
2023/08/22 03:51:58;;;;;;;21.60;13.38;;;;;;;18.14;100.00;101255.16;6139277;23;20032;-83
2023/08/22 03:54:24;;;;;;;22.83;14.57;;;;;;;18.14;100.00;101257.81;6149772;23;20026;-83
2023/08/22 03:56:51;;;;;;;19.95;12.27;;;;;;;18.08;100.00;101253.28;6146433;23;20021;-84
2023/08/22 03:59:17;;;;;;;27.75;12.95;;;;;;;18.03;100.00;101257.50;6148887;23;20017;-85
2023/08/22 04:01:44;;;;;;;20.75;12.82;;;;;;;18.00;100.00;101256.06;6148651;23;20026;-83
2023/08/22 04:04:14;;;;;;;17.30;12.57;;;;;;;18.03;100.00;101255.66;6147697;23;20025;-85
2023/08/22 04:06:40;;;;;;;24.65;12.25;;;;;;;18.02;100.00;101261.16;6146415;23;20081;-83
2023/08/22 04:09:09;;;;;;;20.55;12.68;;;;;;;17.92;100.00;101258.84;6130487;23;20053;-83
2023/08/22 04:11:35;;;;;;;23.17;12.55;;;;;;;17.92;100.00;101258.84;6129094;23;20029;-82
2023/08/22 04:14:24;;;;;;;22.80;12.60;;;;;;;17.94;100.00;101272.72;6131506;23;20033;-84
2023/08/22 04:16:51;;;;;;;25.40;12.68;;;;;;;17.87;100.00;101259.41;6134103;23;20025;-83
2023/08/22 04:19:40;;;;;;;19.23;12.10;;;;;;;17.88;100.00;101265.53;6133868;23;20442;-85
2023/08/22 04:22:30;;;;;;;21.50;11.98;;;;;;;17.77;100.00;101261.53;6132047;23;20026;-83
2023/08/22 04:25:12;;;;;;;20.27;12.20;;;;;;;17.63;100.00;101249.13;6131964;23;20078;-84
2023/08/22 04:27:41;;;;;;;21.25;11.63;;;;;;;17.67;100.00;101254.91;6127695;23;20032;-82
2023/08/22 04:30:08;;;;;;;15.60;11.10;;;;;;;17.71;100.00;101257.00;6126864;23;20041;-81
2023/08/22 04:32:39;;;;;;;21.50;12.30;;;;;;;17.69;100.00;101258.19;6127585;23;20529;-84
2023/08/22 04:35:09;;;;;;;22.15;12.43;;;;;;;17.74;100.00;101261.09;6126641;23;20022;-83
2023/08/22 04:37:36;;;;;;;17.83;12.27;;;;;;;17.61;100.00;101237.91;6127465;23;20060;-81
2023/08/22 04:40:12;;;;;;;18.42;12.50;;;;;;;17.73;100.00;101254.16;6127663;23;20022;-82
2023/08/22 04:42:43;;;;;;;21.08;14.45;;;;;;;17.79;100.00;101258.72;6127665;23;20026;-82
2023/08/22 04:45:21;;;;;;;21.67;12.80;;;;;;;17.86;100.00;101276.31;6126934;23;20017;-81
2023/08/22 04:47:58;;;;;;;21.33;13.30;;;;;;;17.95;100.00;101263.78;6127063;23;20093;-82
2023/08/22 04:50:36;;;;;;;18.60;13.30;;;;;;;17.97;100.00;101251.13;6127607;23;20104;-81
2023/08/22 04:53:06;;;;;;;20.70;13.45;;;;;;;18.07;100.00;101249.00;6127460;23;20025;-81
2023/08/22 04:55:36;;;;;;;18.75;13.18;;;;;;;18.26;100.00;101270.56;6126808;23;20021;-83
2023/08/22 04:58:03;;;;;;;21.70;13.98;;;;;;;18.16;100.00;101239.91;6126852;23;20014;-83
2023/08/22 05:00:30;;;;;;;17.98;12.65;;;;;;;18.34;100.00;101250.06;6129217;23;20026;-83
2023/08/22 05:02:57;;;;;;;24.55;14.18;;;;;;;18.48;100.00;101261.56;6129393;23;20105;-83
2023/08/22 05:05:30;;;;;;;26.23;13.45;;;;;;;18.51;100.00;101242.63;6127729;23;20018;-82
2023/08/22 05:21:52;;;;;;;20.15;13.77;;;;;;;18.83;100.00;101250.00;5956645;23;19917;-81
2023/08/22 05:27:59;;;;;;;26.40;13.73;;;;;;;18.87;99.84;101243.31;5845078;24;20096;-81
2023/08/22 05:30:26;;;;;;;20.60;12.90;;;;;;;19.02;99.70;101251.13;5977246;23;20055;-81
2023/08/22 05:32:53;;;;;;;19.98;12.02;;;;;;;19.15;98.95;101253.84;6040952;23;20031;-81
2023/08/22 05:35:19;;;;;;;23.27;12.98;;;;;;;19.37;97.77;101254.56;6120673;23;20060;-81
2023/08/22 05:37:47;;;;;;;23.38;13.15;;;;;;;19.37;96.61;101249.25;6129798;23;20018;-79
2023/08/22 05:40:14;;;;;;;19.73;12.05;;;;;;;19.33;96.19;101241.88;6131118;23;20045;-82
2023/08/22 05:42:40;;;;;;;17.67;12.65;;;;;;;19.31;95.60;101242.09;6131048;23;20037;-82
2023/08/22 05:45:08;;;;;;;20.27;12.25;;;;;;;19.26;95.70;101252.47;6129911;23;20037;-81
2023/08/22 05:47:35;;;;;;;19.45;13.00;;;;;;;19.34;95.87;101262.91;6129650;23;20096;-82
2023/08/22 05:50:03;;;;;;;20.65;12.60;;;;;;;19.51;95.47;101261.56;6131213;23;20471;-82
2023/08/22 05:52:30;;;;;;;18.48;11.85;;;;;;;19.98;94.03;101249.22;6131630;23;20100;-82
2023/08/22 05:54:58;;;;;;;16.13;12.02;;;;;;;20.24;91.82;101240.44;6131823;23;20048;-82
2023/08/22 05:57:25;;;;;;;19.08;12.35;;;;;;;20.56;91.00;101249.44;6132157;23;20026;-81
2023/08/22 05:59:51;;;;;;;16.85;11.65;;;;;;;21.37;88.27;101239.19;6132744;23;20213;-81
2023/08/22 06:02:18;;;;;;;13.90;10.18;;;;;;;22.46;84.20;101220.19;6131176;23;20129;-82
2023/08/22 06:04:46;;;;;;;15.18;9.40;;;;;;;23.51;79.78;101222.69;6132146;23;20033;-80
2023/08/22 06:07:13;;;;;;;17.38;9.85;;;;;;;23.89;77.67;101211.66;6131479;23;20036;-82
2023/08/22 06:09:39;;;;;;;14.93;10.05;;;;;;;24.63;75.24;101228.91;6132321;23;20062;-82
2023/08/22 06:12:08;;;;;;;16.75;10.27;;;;;;;24.81;73.42;101211.88;6132520;23;20106;-84
2023/08/22 06:14:35;;;;;;;23.65;10.15;;;;;;;24.63;73.30;101226.22;6133019;23;20050;-83
2023/08/22 06:17:02;;;;;;;17.20;9.93;;;;;;;24.54;74.07;101226.84;6132440;23;20080;-84
2023/08/22 06:19:29;;;;;;;15.93;10.60;;;;;;;24.03;75.10;101225.63;6132870;23;20124;-84
2023/08/22 06:21:56;;;;;;;18.42;11.15;;;;;;;23.33;77.61;101242.22;6131682;23;20026;-83
2023/08/22 06:24:23;;;;;;;18.67;11.07;;;;;;;23.52;78.90;101255.53;6130951;23;20030;-84
2023/08/22 06:26:49;;;;;;;20.88;11.25;;;;;;;24.09;77.13;101238.88;6131284;23;20022;-84
2023/08/22 06:29:20;;;;;;;20.25;10.02;;;;;;;24.56;76.06;101236.25;6130673;23;20080;-80
2023/08/22 06:31:47;;;;;;;17.25;10.77;;;;;;;25.00;75.18;101225.97;6131100;23;20022;-80
2023/08/22 06:34:14;;;;;;;19.95;11.43;;;;;;;25.31;73.17;101219.34;6132009;23;20022;-82
2023/08/22 06:36:41;;;;;;;20.45;10.35;;;;;;;25.75;71.96;101218.56;6131753;23;20021;-81
2023/08/22 06:39:08;;;;;;;19.30;11.07;;;;;;;25.27;72.51;101228.91;6132854;23;20018;-82
2023/08/22 06:41:37;;;;;;;15.52;10.40;;;;;;;24.74;73.61;101240.63;6134532;23;20188;-81
2023/08/22 06:51:20;;;;;;;22.27;12.23;;;;;;;23.27;78.64;101228.94;5950016;23;20028;-82
2023/08/22 06:53:59;;;;;;;22.50;11.60;;;;;;;23.09;79.95;101245.81;6060451;23;20022;-82
2023/08/22 06:56:50;;;;;;;17.83;11.70;;;;;;;23.22;80.50;101248.31;6133114;23;20026;-82
2023/08/22 06:59:19;;;;;;;19.58;12.73;;;;;;;23.07;79.92;101234.56;6132039;23;20018;-83
2023/08/22 07:01:51;;;;;;;17.63;12.32;;;;;;;23.11;79.98;101225.06;6133281;23;20026;-82
2023/08/22 07:04:23;;;;;;;24.38;13.50;;;;;;;23.43;78.77;101241.69;6133066;23;20037;-81
2023/08/22 07:06:55;;;;;;;19.20;12.73;;;;;;;23.47;78.50;101227.66;6132439;23;20022;-82
2023/08/22 07:09:57;;;;;;;;;;;;;;;23.61;77.56;101235.53;6134438;23;20093;-81
2023/08/22 07:12:38;;;;;;;19.35;12.93;;;;;;;24.08;77.17;101245.28;6129308;23;20271;-82
2023/08/22 07:15:09;;;;;;;16.23;12.45;;;;;;;24.71;74.82;101239.25;6131588;23;20398;-81
2023/08/22 07:20:39;;;;;;;21.50;12.48;;;;;;;25.05;74.03;101245.59;6117112;23;20026;-83
2023/08/22 07:23:07;;;;;;;23.48;11.93;;;;;;;25.26;73.60;101220.06;6130728;23;20390;-82
2023/08/22 07:25:47;;;;;;;22.95;12.38;;;;;;;25.95;71.75;101211.91;6129776;23;20025;-81
2023/08/22 07:28:14;;;;;;;20.92;13.40;;;;;;;27.25;67.85;101208.59;6130286;23;20060;-80
2023/08/22 07:30:41;;;;;;;22.25;12.52;;;;;;;28.01;65.47;101214.69;6129735;23;20097;-83
2023/08/22 07:33:49;;;;;;;24.60;12.20;;;;;;;27.77;65.08;101205.38;6130545;23;20033;-80
2023/08/22 07:39:49;;;;;;;18.45;11.70;;;;;;;28.18;64.61;101227.19;6123566;23;20026;-82
2023/08/22 07:42:47;;;;;;;18.85;12.70;;;;;;;26.80;66.69;101218.78;6089638;23;20115;-80
2023/08/22 07:48:42;;;;;;;21.23;12.45;;;;;;;25.92;70.60;101244.56;6132922;23;20040;-78
2023/08/22 07:54:04;;;;;;;17.27;13.27;;;;;;;27.34;66.67;101231.28;6124116;23;20026;-79
2023/08/22 07:56:45;;;;;;;18.45;13.00;;;;;;;27.71;66.51;101235.97;6130085;23;20089;-80
2023/08/22 07:59:23;;;;;;;25.55;12.98;;;;;;;27.56;65.31;101233.09;6129305;23;20049;-81
2023/08/22 08:02:15;;;;;;;20.77;12.98;;;;;;;27.59;65.80;101256.81;6129526;23;20030;-79
2023/08/22 08:04:58;;;;;;;19.45;12.18;;;;;;;27.32;66.30;101249.53;6129527;23;20026;-82
2023/08/22 08:07:29;;;;;;;22.38;13.15;;;;;;;27.14;66.55;101232.91;6128831;23;20025;-80
2023/08/22 08:10:18;;;;;;;19.85;12.90;;;;;;;26.93;68.31;101245.28;6129503;23;20029;-79
2023/08/22 08:13:11;;;;;;;21.15;12.98;;;;;;;26.80;68.34;101259.88;6127357;23;20382;-79
2023/08/22 08:19:20;;;;;;;19.60;13.00;;;;;;;27.91;65.85;101257.63;6133568;23;20036;-82
2023/08/22 08:22:33;;;;;;;16.67;12.73;;;;;;;27.96;65.08;101233.47;6136256;23;20089;-81
2023/08/22 08:25:07;;;;;;;;;;;;;;;28.24;64.28;101251.22;6135721;23;20029;-80
2023/08/22 08:28:02;;;;;;;17.55;12.35;;;;;;;28.80;63.29;101259.63;6136299;23;19921;-79
2023/08/22 08:30:44;;;;;;;20.92;12.32;;;;;;;29.15;60.79;101250.91;6134850;23;20022;-80
2023/08/22 08:37:11;;;;;;;21.58;12.40;;;;;;;29.09;60.22;101241.19;6074260;23;20258;-81
2023/08/22 08:40:05;;;;;;;;;;;;;;;28.72;59.96;101236.69;6135829;23;20030;-80
2023/08/22 08:45:40;;;;;;;16.20;9.45;;;;;;;29.18;59.39;101241.50;6133266;23;20022;-81
2023/08/22 08:48:08;;;;;;;15.32;11.23;;;;;;;29.29;59.13;101238.56;6135059;23;20049;-81
2023/08/22 08:50:37;;;;;;;19.25;10.50;;;;;;;30.00;58.58;101256.75;6133211;23;20026;-80
2023/08/22 08:53:09;;;;;;;18.75;11.20;;;;;;;29.83;58.07;101251.59;6136415;23;20025;-82
2023/08/22 08:55:36;;;;;;;13.57;10.38;;;;;;;28.83;60.12;101263.72;6135545;23;20057;-80
2023/08/22 08:58:03;;;;;;;16.13;10.40;;;;;;;28.54;60.77;101258.69;6134546;23;20025;-79
2023/08/22 09:00:32;;;;;;;20.60;11.32;;;;;;;28.83;61.81;101263.72;6135392;23;20030;-80
2023/08/22 09:02:58;;;;;;;17.50;9.40;;;;;;;29.40;60.53;101269.03;6136143;23;20046;-80
2023/08/22 09:05:26;;;;;;;16.60;11.02;;;;;;;29.00;59.84;101250.84;6134475;23;20062;-82
2023/08/22 09:07:54;;;;;;;17.55;9.73;;;;;;;29.52;58.42;101249.94;6133388;23;20025;-81
2023/08/22 09:10:35;;;;;;;15.02;9.15;;;;;;;29.87;57.76;101249.16;6134788;23;20025;-82
2023/08/22 09:13:04;;;;;;;14.93;9.98;;;;;;;30.22;57.59;101248.38;6133871;23;20022;-80
2023/08/22 09:15:31;;;;;;;18.65;9.55;;;;;;;30.22;57.34;101249.19;6132908;23;20069;-81
2023/08/22 09:17:58;;;;;;;12.15;8.68;;;;;;;30.36;56.88;101244.03;6133619;23;20159;-82
2023/08/22 09:20:26;;;;;;;16.45;9.20;;;;;;;30.51;56.38;101246.69;6132417;23;20021;-81
2023/08/22 09:22:53;;;;;;;15.02;10.10;;;;;;;30.08;56.51;101252.72;6134637;23;20030;-80
2023/08/22 09:25:20;;;;;;;15.07;9.63;;;;;;;30.42;57.46;101242.13;6133464;23;20033;-81
2023/08/22 09:27:51;;;;;;;15.95;8.30;;;;;;;30.18;57.28;101252.72;6132412;23;20050;-78
2023/08/22 09:30:20;;;;;;;14.23;8.90;;;;;;;30.02;56.98;101250.00;6132228;23;20018;-79
2023/08/22 09:32:58;;;;;;;18.08;9.40;;;;;;;29.58;58.66;101255.09;6133011;23;20026;-82
2023/08/22 09:35:29;;;;;;;16.70;7.97;;;;;;;29.26;59.33;101257.97;6132928;23;20026;-81
2023/08/22 09:37:56;;;;;;;11.15;8.13;;;;;;;29.23;59.23;101253.09;6132893;23;20032;-79
2023/08/22 09:40:22;;;;;;;12.82;6.85;;;;;;;28.72;58.18;101231.31;6130060;23;20052;-79
2023/08/22 09:42:51;;;;;;;11.30;6.22;;;;;;;28.82;58.89;101240.56;6132100;23;20080;-80
2023/08/22 09:45:20;;;;;;;9.98;6.85;;;;;;;28.91;58.31;101241.66;6132058;23;20089;-80
2023/08/22 09:47:49;;;;;;;12.23;7.57;;;;;;;28.41;58.93;101233.00;6133264;23;20060;-80
2023/08/22 09:50:18;;;;;;;14.52;8.27;;;;;;;28.46;59.75;101234.94;6133277;23;20060;-79
2023/08/22 09:52:45;;;;;;;16.23;8.65;;;;;;;28.32;60.08;101236.47;6131037;23;20057;-80
2023/08/22 09:55:13;;;;;;;15.07;7.90;;;;;;;28.69;60.30;101231.03;6130857;23;20041;-80
2023/08/22 09:57:40;;;;;;;13.48;8.43;;;;;;;28.66;60.09;101220.78;6134194;23;20026;-79
2023/08/22 10:00:11;;;;;;;14.00;9.25;;;;;;;28.80;59.38;101226.50;6134364;23;20081;-80
2023/08/22 10:02:39;;;;;;;17.33;8.57;;;;;;;28.99;59.91;101233.06;6132538;23;20073;-80
2023/08/22 10:05:06;;;;;;;12.57;6.30;;;;;;;29.15;58.46;101217.75;6132776;23;20025;-77
2023/08/22 10:07:34;;;;;;;13.05;7.68;;;;;;;28.79;58.89;101211.41;6130573;23;20057;-82
2023/08/22 10:10:00;;;;;;;13.20;7.43;;;;;;;28.80;59.01;101211.16;6133434;23;20459;-82
2023/08/22 10:12:28;;;;;;;15.80;7.40;;;;;;;28.87;58.71;101217.13;6131401;23;20022;-80
2023/08/22 10:14:57;;;;;;;13.75;7.85;;;;;;;28.59;58.85;101217.50;6131487;23;20060;-81
2023/08/22 10:17:28;;;;;;;16.60;6.90;;;;;;;28.61;59.07;101226.13;6130566;23;20045;-81
2023/08/22 10:20:01;;;;;;;11.65;6.20;;;;;;;28.61;59.08;101223.44;6131861;23;20046;-80
2023/08/22 10:22:32;;;;;;;14.50;6.55;;;;;;;28.26;59.45;101214.09;6132856;23;20025;-80
2023/08/22 10:25:03;;;;;;;11.70;6.65;;;;;;;28.13;59.93;101221.78;6131059;23;20018;-79
2023/08/22 10:27:30;;;;;;;9.07;5.15;;;;;;;28.29;59.35;101204.69;6132506;23;20100;-82
2023/08/22 10:30:19;;;;;;;7.93;5.47;;;;;;;28.61;58.51;101193.81;6133382;23;20029;-80
2023/08/22 10:33:03;;;;;;;10.10;5.45;;;;;;;28.63;58.40;101205.97;6134039;23;20348;-81
2023/08/22 10:35:30;;;;;;;10.30;5.75;;;;;;;28.82;57.89;101209.03;6133569;23;20025;-80
2023/08/22 10:37:57;;;;;;;11.80;6.15;;;;;;;28.96;58.17;101203.97;6132738;23;20105;-82
2023/08/22 10:40:29;;;;;;;6.95;5.18;;;;;;;29.23;57.12;101201.09;6132505;23;20022;-82
2023/08/22 10:43:10;;;;;;;10.75;5.75;;;;;;;29.93;56.01;101200.34;6132294;23;20050;-81
2023/08/22 10:45:42;;;;;;;11.98;5.80;;;;;;;29.95;55.30;101186.56;6132619;23;20362;-82
2023/08/22 10:48:12;;;;;;;12.52;5.88;;;;;;;29.93;55.42;101186.84;6132630;23;20429;-80
2023/08/22 10:50:42;;;;;;;13.60;5.70;;;;;;;29.42;55.90;101196.00;6133073;23;20370;-82
2023/08/22 10:53:17;;;;;;;9.43;5.30;;;;;;;29.47;56.60;101193.31;6131651;23;20022;-82
2023/08/22 10:55:44;;;;;;;9.85;6.22;;;;;;;29.58;55.91;101195.75;6133367;23;20140;-85
2023/08/22 10:58:36;;;;;;;8.15;5.60;;;;;;;29.38;55.17;101190.31;6135746;23;20022;-81
2023/08/22 11:01:05;;;;;;;14.23;5.55;;;;;;;29.12;56.88;101202.94;6143820;23;20073;-81
2023/08/22 11:03:34;;;;;;;13.95;6.35;;;;;;;28.86;57.16;101201.22;6141348;23;20022;-80
2023/08/22 11:06:00;;;;;;;10.93;5.78;;;;;;;28.77;58.62;101197.41;6132623;23;20025;-80
2023/08/22 11:08:27;;;;;;;14.68;5.47;;;;;;;28.19;58.37;101199.22;6131975;23;20132;-82
2023/08/22 11:10:54;;;;;;;9.52;5.40;;;;;;;28.15;57.78;101190.03;6132091;23;20087;-83
2023/08/22 11:13:21;;;;;;;9.48;5.10;;;;;;;28.53;57.67;101197.81;6134190;23;20022;-81
2023/08/22 11:15:51;;;;;;;11.35;5.18;;;;;;;28.67;57.21;101190.09;6135087;23;20026;-81
2023/08/22 11:18:18;;;;;;;9.52;4.95;;;;;;;28.83;56.71;101182.91;6134636;23;20112;-79
2023/08/22 11:20:55;;;;;;;14.07;4.88;;;;;;;28.65;56.61;101190.34;6132509;23;20018;-81
2023/08/22 11:23:21;;;;;;;9.60;4.93;;;;;;;28.48;57.34;101195.09;6134468;23;20037;-81
2023/08/22 11:25:48;;;;;;;6.88;4.10;;;;;;;28.67;56.47;101192.78;6133054;23;20274;-81
2023/08/22 11:28:14;;;;;;;9.60;4.20;;;;;;;28.90;56.13;101189.66;6134314;23;20026;-80
2023/08/22 11:30:41;;;;;;;9.82;4.60;;;;;;;28.77;56.23;101195.53;6133375;23;20022;-82
2023/08/22 11:33:09;;;;;;;9.23;5.03;;;;;;;28.39;55.73;101177.81;6136833;23;20026;-82
2023/08/22 11:35:35;;;;;;;9.27;5.00;;;;;;;28.82;56.37;101192.88;6135292;23;20021;-82
2023/08/22 11:38:07;;;;;;;8.15;4.90;;;;;;;29.15;55.95;101190.81;6136923;23;20025;-81
2023/08/22 11:40:41;;;;;;;12.03;4.90;;;;;;;29.14;56.82;101202.66;6135325;23;20076;-82
2023/08/22 11:43:10;;;;;;;8.93;4.50;;;;;;;29.29;56.18;101190.03;6134828;23;20794;-80
2023/08/22 11:45:48;;;;;;;9.48;5.03;;;;;;;29.23;55.68;101180.34;6136438;23;20057;-82
2023/08/22 11:48:24;;;;;;;7.90;4.50;;;;;;;29.31;55.25;101185.16;6134417;23;20467;-81
2023/08/22 11:51:15;;;;;;;11.20;5.22;;;;;;;29.16;55.76;101203.22;6135593;23;20220;-81
2023/08/22 11:53:46;;;;;;;7.07;4.55;;;;;;;29.27;55.16;101189.50;6135228;23;20042;-82
2023/08/22 11:56:13;;;;;;;8.65;4.70;;;;;;;29.61;55.17;101173.66;6135610;23;20036;-82
2023/08/22 11:58:51;;;;;;;12.32;4.82;;;;;;;30.06;54.68;101200.91;6135809;23;20474;-81
2023/08/22 12:01:26;;;;;;;10.02;6.25;;;;;;;29.87;53.89;101177.13;6136329;23;20534;-81
2023/08/22 12:03:57;;;;;;;12.73;5.43;;;;;;;30.22;54.48;101186.31;6139232;23;20021;-80
2023/08/22 12:06:30;;;;;;;12.05;5.88;;;;;;;30.18;53.89;101175.25;6141955;23;20029;-79
2023/08/22 12:09:07;;;;;;;7.47;4.85;;;;;;;29.64;54.52;101192.00;6139190;23;20030;-81
2023/08/22 12:11:45;;;;;;;11.68;6.10;;;;;;;29.14;55.68;101198.09;6135895;23;20057;-79
2023/08/22 12:14:12;;;;;;;13.45;6.40;;;;;;;28.96;56.28;101196.69;6135657;23;20022;-82
2023/08/22 12:16:39;;;;;;;13.63;5.53;;;;;;;29.29;55.79;101203.53;6136505;23;20029;-81
2023/08/22 12:19:15;;;;;;;12.93;5.50;;;;;;;29.24;55.04;101205.41;6135560;23;20081;-81